Rockport, TX (78381)

10:06 PM CST on February 19, 2017 (GMT -0600)
Harbor Oaks | | Change Station

Elev 10 ft 28.05 °N, 97.04 °W | Updated 22 seconds ago

Overcast
Overcast
72.1 °F
Feels Like 72.1 °F
N
4.0
Wind Variable Wind from East

Today
High -- | Low -- °F
--% Chance of Precip.
Yesterday
High -- | Low -- °F
Precip. -- in
Pressure 29.82 in
Visibility 6.0 miles
Clouds Mostly Cloudy 800 ft
Overcast 1300 ft
Dew Point 71 °F
Humidity 98%
Rainfall 0.00 in
Snow Depth Not available.
7:02 AM 6:22 PM
Last Quarter, 37% visible
METAR KRKP 200353Z AUTO 12010KT 6SM BR BKN008 OVC013 23/21 A2981 RMK AO2 CIG 007V012 SLP096 T02280211
Pressure 29.82 in
Visibility 6.0 miles
Clouds Mostly Cloudy 800 ft
Overcast 1300 ft
Dew Point 71 °F
Humidity 98%
Rainfall 0.00 in
Snow Depth Not available.
7:02 AM 6:22 PM
Last Quarter, 37% visible
METAR KRKP 200353Z AUTO 12010KT 6SM BR BKN008 OVC013 23/21 A2981 RMK AO2 CIG 007V012 SLP096 T02280211

Get Your Daily Forecast Email!

Thanks for signing up!

Be on the lookout for a verification email in your inbox.

You'll start receiving the daily forecast at 8 AM.

×

10-Day Weather Forecast

Almanac

Astronomy

Feb. 19, 2017 Rise Set
Actual Time
Civil Twilight
Nautical Twilight
Astronomical Twilight
Moon
Length of Visible Light
Length of Day
Tomorrow will be .
, % of the Moon is Illuminated

Today's Extremes

State Highs State Lows

Community

WunderPhotos

Upload Photos

1,962,540 photos uploaded!

WunderBlog® & News

Nearby

Air Quality

  Air Quality AQ Index Pollutant
Not available.

Snow Depth

Station Depth Elevation

Earthquake Activity

City Distance Mag. Time & Date
Minimum magnitude displayed is 2.5.

Coastal Water Temperatures

Place Temperature

Stations

Nearby Weather Stations

Station Location Temp. Windchill Dew Point Humidity Wind Precip. Elev Updated Type
                   

Watches & Warnings

There are currently no watches in effect.